Time;durP1;ratioP1;P1;durP2;ratioP2;P2;SDS_P1;SDS_P2;PMS_P1;PMS_P2;Temp;Humidity;BMP_temperature;BMP_pressure;BME280_temperature;BME280_humidity;BME280_pressure;Samples;Min_cycle;Max_cycle;Signal;HPM_P1;HPM_P2
2022/11/24 00:01:55;;;;;;;31.50;20.97;;;;;;;6.24;81.55;99825.27;1792806;78;21187;-77
2022/11/24 00:05:01;;;;;;;34.35;20.37;;;;;;;6.79;80.46;99818.59;1792873;78;21148;-77
2022/11/24 00:08:06;;;;;;;33.98;22.35;;;;;;;6.76;79.90;99818.40;1792867;80;21148;-77
2022/11/24 00:11:16;;;;;;;34.78;23.80;;;;;;;6.80;79.49;99820.29;1792620;78;21709;-77
2022/11/24 00:14:23;;;;;;;32.60;20.65;;;;;;;6.80;79.76;99820.29;1750089;82;21761;-77
2022/11/24 00:17:29;;;;;;;30.80;20.75;;;;;;;7.00;79.11;99827.66;1749912;82;21136;-78
2022/11/24 00:20:35;;;;;;;29.55;20.40;;;;;;;6.48;80.59;99829.14;1749410;82;21172;-77
2022/11/24 00:23:43;;;;;;;30.68;19.02;;;;;;;6.45;80.86;99821.33;1750049;82;21192;-78
2022/11/24 00:26:50;;;;;;;35.38;25.97;;;;;;;6.55;81.02;99823.42;1749431;82;21180;-77
2022/11/24 00:29:56;;;;;;;29.00;20.02;;;;;;;6.58;81.13;99808.13;1716813;83;21195;-78
2022/11/24 00:33:04;;;;;;;29.32;21.30;;;;;;;6.72;80.32;99806.14;1697256;84;21247;-78
2022/11/24 00:36:10;;;;;;;28.55;18.98;;;;;;;6.57;81.08;99792.84;1697226;84;21860;-78
2022/11/24 00:39:12;;;;;;;29.30;20.37;;;;;;;6.70;80.64;99790.52;1697219;84;21235;-78
2022/11/24 00:42:05;;;;;;;28.52;19.65;;;;;;;6.80;80.46;99789.03;1697184;84;21196;-78
2022/11/24 00:45:11;;;;;;;30.65;20.45;;;;;;;6.64;80.49;99797.47;1697281;84;21169;-78
2022/11/24 00:48:16;;;;;;;29.40;20.20;;;;;;;3.63;91.51;99795.23;1697288;84;22156;-78
2022/11/24 00:51:23;;;;;;;32.05;20.10;;;;;;;3.26;97.07;99787.84;1695794;84;21223;-77
2022/11/24 00:54:28;;;;;;;28.32;19.42;;;;;;;4.24;97.75;99781.75;1697192;84;21713;-77
2022/11/24 00:57:37;;;;;;;32.13;20.08;;;;;;;5.11;92.37;99781.23;1697224;84;21243;-78
2022/11/24 01:00:43;;;;;;;29.90;19.67;;;;;;;5.19;91.31;99773.70;1696840;84;21664;-77
2022/11/24 01:03:49;;;;;;;30.80;20.17;;;;;;;5.02;91.74;99782.16;1697358;84;21203;-77
2022/11/24 01:06:55;;;;;;;31.93;20.15;;;;;;;5.09;91.49;99771.92;1696050;84;21212;-77
2022/11/24 01:10:00;;;;;;;28.75;19.70;;;;;;;5.54;89.67;99769.59;1696808;84;21729;-78
2022/11/24 01:13:06;;;;;;;28.15;18.02;;;;;;;5.83;88.31;99767.97;1707077;82;21193;-77
2022/11/24 01:16:12;;;;;;;27.75;18.77;;;;;;;5.85;87.41;99767.80;1732761;81;21229;-77
2022/11/24 01:19:17;;;;;;;27.70;18.45;;;;;;;5.19;91.56;99759.64;1733456;83;21236;-77
2022/11/24 01:22:25;;;;;;;29.18;18.50;;;;;;;3.85;98.72;99756.16;1732109;81;21201;-77
2022/11/24 01:25:30;;;;;;;25.97;18.37;;;;;;;4.69;96.59;99760.13;1733503;81;21208;-77
2022/11/24 01:28:37;;;;;;;30.08;19.37;;;;;;;5.50;93.40;99751.92;1733185;83;21169;-77
2022/11/24 01:31:44;;;;;;;27.77;18.85;;;;;;;5.67;90.93;99746.12;1733415;81;21781;-78
2022/11/24 01:34:51;;;;;;;29.40;18.55;;;;;;;5.70;90.20;99751.25;1733503;83;21166;-78
2022/11/24 01:37:57;;;;;;;28.55;18.87;;;;;;;5.62;90.65;99741.69;1733493;83;21193;-78
2022/11/24 01:41:20;;;;;;;26.60;18.20;;;;;;;5.71;90.08;99744.80;1733506;81;21192;-77
2022/11/24 01:44:34;;;;;;;26.02;17.23;;;;;;;5.80;89.27;99738.42;1733631;83;21162;-77
2022/11/24 01:47:45;;;;;;;27.58;17.48;;;;;;;5.90;88.73;99747.81;1733560;83;21208;-78
2022/11/24 01:50:50;;;;;;;25.02;17.55;;;;;;;5.71;89.53;99745.31;1733591;81;21220;-78
2022/11/24 01:54:07;;;;;;;24.52;16.87;;;;;;;5.66;89.30;99732.22;1732047;83;21173;-77
2022/11/24 01:57:30;;;;;;;24.98;17.37;;;;;;;5.85;89.27;99734.72;1733395;81;21201;-77
2022/11/24 02:00:34;;;;;;;24.72;16.57;;;;;;;6.48;87.00;99733.53;1732052;81;21204;-78
2022/11/24 02:03:42;;;;;;;21.90;16.37;;;;;;;6.33;86.14;99730.59;1733535;83;21156;-78
2022/11/24 02:10:22;;;;;;;21.52;15.50;;;;;;;6.87;84.57;99724.84;1733742;81;21721;-78
2022/11/24 02:13:15;;;;;;;24.45;17.12;;;;;;;7.02;83.59;99715.52;1732998;83;21193;-77
2022/11/24 02:16:22;;;;;;;24.30;16.60;;;;;;;7.50;81.84;99716.55;1733480;81;21236;-78
2022/11/24 02:19:52;;;;;;;33.13;21.35;;;;;;;7.67;81.03;99714.16;1732289;83;21168;-78
2022/11/24 02:23:23;;;;;;;26.97;18.90;;;;;;;7.42;81.90;99716.88;1733554;83;21763;-77
2022/11/24 02:26:52;;;;;;;22.37;15.78;;;;;;;7.46;81.72;99706.51;1733537;81;21204;-77
2022/11/24 02:29:58;;;;;;;23.60;15.78;;;;;;;7.57;81.71;99702.58;1733558;83;21154;-78
2022/11/24 02:33:03;;;;;;;25.00;16.70;;;;;;;7.67;81.24;99704.12;1733681;83;21146;-78
2022/11/24 02:36:08;;;;;;;28.35;16.00;;;;;;;7.99;80.00;99698.76;1733595;81;21177;-78
2022/11/24 02:39:21;;;;;;;23.62;16.05;;;;;;;8.01;79.59;99695.37;1733543;83;21154;-78
2022/11/24 02:42:26;;;;;;;31.27;20.27;;;;;;;8.00;79.39;99690.92;1733569;83;21196;-77
2022/11/24 02:45:32;;;;;;;26.95;15.80;;;;;;;8.07;79.13;99697.38;1733557;81;21859;-77
2022/11/24 02:48:37;;;;;;;24.43;16.07;;;;;;;8.00;79.76;99700.45;1733569;83;21160;-78
2022/11/24 02:51:44;;;;;;;27.95;16.77;;;;;;;8.16;78.62;99705.34;1735415;81;21193;-78
2022/11/24 02:54:50;;;;;;;27.85;17.23;;;;;;;8.24;78.56;99711.30;1737066;83;21202;-77
2022/11/24 02:57:55;;;;;;;24.07;16.02;;;;;;;8.13;78.91;99712.50;1735309;83;21167;-77
2022/11/24 03:01:01;;;;;;;24.92;16.62;;;;;;;8.11;79.42;99707.75;1734266;81;21208;-78
2022/11/24 03:04:07;;;;;;;22.50;15.85;;;;;;;8.55;78.00;99714.59;1733645;83;21208;-78
2022/11/24 03:07:14;;;;;;;21.93;14.68;;;;;;;8.76;77.31;99717.56;1733601;81;21228;-78
2022/11/24 03:10:19;;;;;;;26.33;17.62;;;;;;;8.78;76.83;99713.28;1733779;81;21267;-78
2022/11/24 03:13:24;;;;;;;23.67;15.55;;;;;;;8.67;77.23;99715.39;1733462;83;21165;-78
2022/11/24 03:16:31;;;;;;;22.22;14.90;;;;;;;8.82;76.99;99704.56;1736281;81;21725;-77
2022/11/24 03:19:36;;;;;;;27.05;15.65;;;;;;;8.72;77.28;99703.09;1739309;82;21166;-77
2022/11/24 03:22:43;;;;;;;25.43;16.12;;;;;;;8.70;77.25;99701.89;1739311;82;21173;-78
2022/11/24 03:25:49;;;;;;;23.12;15.72;;;;;;;8.78;77.13;99708.67;1718972;81;21202;-78
2022/11/24 03:28:55;;;;;;;25.02;15.90;;;;;;;8.95;76.72;99703.46;1739338;82;21188;-77
2022/11/24 03:32:00;;;;;;;25.88;16.05;;;;;;;8.75;77.38;99704.96;1737860;81;21813;-77
2022/11/24 03:35:06;;;;;;;23.12;15.93;;;;;;;9.09;76.27;99692.80;1739336;81;21220;-78
2022/11/24 03:38:11;;;;;;;21.52;14.58;;;;;;;9.33;75.56;99699.43;1739349;82;21169;-78
2022/11/24 03:41:18;;;;;;;28.83;19.02;;;;;;;9.24;75.56;99695.06;1739338;81;21213;-78
2022/11/24 03:44:24;;;;;;;21.27;15.80;;;;;;;9.27;75.86;99698.80;1739025;82;21248;-78
2022/11/24 03:47:30;;;;;;;27.02;17.80;;;;;;;9.41;75.40;99701.22;1739476;82;21204;-77
2022/11/24 03:50:35;;;;;;;28.40;16.48;;;;;;;9.21;75.87;99696.78;1739260;81;21224;-78
2022/11/24 03:53:40;;;;;;;34.90;17.80;;;;;;;9.19;76.19;99701.59;1739294;82;21161;-77
2022/11/24 03:56:40;;;;;;;24.85;15.95;;;;;;;8.76;77.86;99697.63;1739264;81;21801;-78
2022/11/24 03:59:45;;;;;;;21.30;14.70;;;;;;;9.08;77.07;99693.33;1739200;82;21776;-77
2022/11/24 04:02:50;;;;;;;24.27;16.00;;;;;;;8.86;77.53;99700.45;1739306;82;21200;-78
2022/11/24 04:05:55;;;;;;;25.10;16.15;;;;;;;9.13;76.78;99684.59;1739166;81;21213;-78
2022/11/24 04:09:01;;;;;;;21.15;15.05;;;;;;;9.04;76.29;99682.44;1739258;82;21719;-78
2022/11/24 04:15:30;;;;;;;20.27;14.65;;;;;;;9.30;76.02;99685.30;1739152;81;21177;-78
2022/11/24 04:18:35;;;;;;;25.23;16.50;;;;;;;9.28;76.03;99686.85;1739298;82;21168;-77
2022/11/24 04:21:40;;;;;;;22.65;15.28;;;;;;;9.07;76.43;99688.02;1739250;81;21220;-78
2022/11/24 04:24:46;;;;;;;27.25;15.10;;;;;;;8.88;77.67;99682.53;1739314;82;21681;-78
2022/11/24 04:27:51;;;;;;;24.65;16.05;;;;;;;9.01;77.31;99692.34;1739381;82;21147;-78
2022/11/24 04:30:50;;;;;;;23.07;15.33;;;;;;;9.37;76.12;99685.75;1739468;81;21177;-78
2022/11/24 04:33:56;;;;;;;27.35;16.82;;;;;;;9.69;74.58;99686.46;1739294;82;21212;-78
2022/11/24 04:37:00;;;;;;;24.27;15.72;;;;;;;10.26;72.81;99696.83;1739431;81;21215;-77
2022/11/24 04:40:06;;;;;;;24.63;15.98;;;;;;;5.88;87.98;99688.27;1739213;81;21722;-78
2022/11/24 04:43:11;;;;;;;31.07;16.73;;;;;;;5.16;95.88;99681.82;1739269;82;21165;-78
2022/11/24 04:46:18;;;;;;;27.45;15.95;;;;;;;5.93;95.48;99678.80;1739313;81;21192;-78
2022/11/24 04:49:24;;;;;;;25.37;15.53;;;;;;;6.02;96.69;99680.54;1739273;82;21165;-78
2022/11/24 04:52:30;;;;;;;23.85;16.05;;;;;;;5.58;97.67;99666.53;1739263;82;21722;-77
2022/11/24 04:55:29;;;;;;;22.37;14.73;;;;;;;6.37;97.93;99668.14;1739045;81;21189;-77
2022/11/24 04:58:35;;;;;;;24.82;15.43;;;;;;;5.40;98.04;99663.02;1739574;82;21142;-77
2022/11/24 05:01:41;;;;;;;25.95;15.85;;;;;;;6.19;98.25;99663.31;1739303;81;21177;-78
2022/11/24 05:04:47;;;;;;;23.57;14.00;;;;;;;6.02;97.54;99668.33;1739186;82;21201;-78
2022/11/24 05:07:53;;;;;;;24.50;16.25;;;;;;;6.57;95.81;99666.48;1739309;82;21713;-77
2022/11/24 05:10:59;;;;;;;28.30;17.45;;;;;;;6.83;94.40;99669.95;1739226;81;21232;-78
2022/11/24 05:14:06;;;;;;;26.62;16.80;;;;;;;7.21;92.43;99659.94;1739276;82;21160;-78
2022/11/24 05:17:12;;;;;;;24.67;16.27;;;;;;;5.73;96.82;99673.57;1738515;81;21201;-78
2022/11/24 05:20:18;;;;;;;26.75;16.80;;;;;;;5.17;100.00;99664.54;1733519;81;21182;-78
2022/11/24 05:23:23;;;;;;;24.65;16.10;;;;;;;5.85;100.00;99668.23;1733440;83;21205;-77
2022/11/24 05:26:29;;;;;;;27.62;17.07;;;;;;;6.19;100.00;99678.25;1732545;81;21754;-77
2022/11/24 05:29:35;;;;;;;29.30;17.45;;;;;;;6.79;97.15;99675.38;1733331;83;21166;-78
2022/11/24 05:32:42;;;;;;;23.27;16.23;;;;;;;7.04;95.03;99682.19;1732288;83;21205;-78
2022/11/24 05:35:48;;;;;;;20.20;14.43;;;;;;;7.26;93.04;99685.61;1732216;81;21212;-77
2022/11/24 05:38:54;;;;;;;28.67;17.25;;;;;;;7.42;92.22;99674.70;1733327;83;21166;-77
2022/11/24 05:42:39;;;;;;;27.98;18.82;;;;;;;7.76;90.35;99670.90;1732235;81;21189;-77
2022/11/24 05:45:01;;;;;;;27.82;20.70;;;;;;;7.86;88.84;99676.18;1732006;81;21189;-78
2022/11/24 05:48:10;;;;;;;29.20;17.20;;;;;;;6.99;92.58;99689.50;1731965;83;21252;-78
2022/11/24 05:51:17;;;;;;;25.92;17.40;;;;;;;7.21;92.04;99676.27;1732666;81;21742;-78
2022/11/24 05:54:23;;;;;;;26.87;18.12;;;;;;;7.19;92.15;99680.48;1733164;83;21249;-77
2022/11/24 05:57:28;;;;;;;25.15;15.40;;;;;;;7.35;91.10;99680.50;1731448;82;21158;-78
2022/11/24 06:00:35;;;;;;;36.93;24.32;;;;;;;7.44;90.27;99678.63;1732363;83;22237;-78
2022/11/24 06:16:44;;;;;;;25.92;16.75;;;;;;;7.60;92.69;99670.95;1793966;76;28079;-81
2022/11/24 06:19:52;;;;;;;26.15;17.15;;;;;;;7.78;90.56;99662.06;1783346;80;21154;-81
2022/11/24 06:22:58;;;;;;;26.75;15.15;;;;;;;7.99;89.10;99664.72;1774540;79;21132;-81
2022/11/24 06:26:08;;;;;;;25.72;16.73;;;;;;;6.97;93.93;99658.92;1771264;79;21172;-82
2022/11/24 06:29:14;;;;;;;26.25;15.53;;;;;;;6.54;95.48;99651.86;1774326;80;21140;-82
2022/11/24 06:32:20;;;;;;;23.30;15.08;;;;;;;6.86;96.13;99656.52;1781619;80;21144;-82
2022/11/24 06:35:25;;;;;;;28.90;15.98;;;;;;;6.96;95.40;99653.62;1774654;79;21207;-82
2022/11/24 06:38:36;;;;;;;26.95;16.27;;;;;;;7.13;94.81;99637.16;1781732;80;21164;-81
2022/11/24 06:41:44;;;;;;;26.62;16.67;;;;;;;7.41;93.46;99649.03;1776478;79;21159;-81
2022/11/24 06:45:01;;;;;;;26.42;15.50;;;;;;;7.57;92.75;99660.39;1779925;79;21772;-81
2022/11/24 06:48:07;;;;;;;29.67;17.62;;;;;;;7.77;91.93;99659.02;1781714;80;21149;-81
2022/11/24 06:51:17;;;;;;;26.12;14.55;;;;;;;8.02;91.08;99664.38;1773845;79;21163;-80
2022/11/24 06:54:25;;;;;;;22.75;14.68;;;;;;;7.88;90.24;99655.06;1781449;80;21144;-81
2022/11/24 06:57:31;;;;;;;24.70;15.80;;;;;;;7.52;94.63;99647.81;1780166;79;21663;-81
2022/11/24 07:00:37;;;;;;;25.32;14.70;;;;;;;7.42;95.19;99643.92;1777631;79;21483;-81
2022/11/24 07:03:44;;;;;;;22.98;13.85;;;;;;;7.70;94.98;99640.30;1781257;79;21168;-82
2022/11/24 07:06:50;;;;;;;25.00;13.95;;;;;;;8.11;92.83;99645.62;1776520;79;21144;-82
2022/11/24 07:09:56;;;;;;;30.52;14.95;;;;;;;7.90;90.52;99640.26;1773645;80;21196;-82
2022/11/24 07:13:06;;;;;;;26.27;14.07;;;;;;;8.43;89.29;99633.23;1779369;80;21168;-82
2022/11/24 07:16:02;;;;;;;23.95;13.88;;;;;;;8.53;88.93;99633.52;1762250;80;21294;-82
2022/11/24 07:19:09;;;;;;;29.52;16.40;;;;;;;8.50;89.18;99625.17;1736273;82;21258;-82
2022/11/24 07:22:16;;;;;;;25.05;14.28;;;;;;;8.52;89.13;99629.11;1739468;81;21164;-83
2022/11/24 07:25:22;;;;;;;23.67;12.70;;;;;;;8.64;88.43;99622.20;1736331;80;21850;-82
2022/11/24 07:28:25;;;;;;;18.98;12.18;;;;;;;8.75;88.12;99620.92;1737399;81;21151;-84
2022/11/24 07:31:31;;;;;;;29.40;13.58;;;;;;;8.81;87.74;99613.40;1717436;82;21227;-82
2022/11/24 07:34:37;;;;;;;30.32;21.20;;;;;;;8.86;87.38;99600.06;1738214;81;21870;-83
2022/11/24 07:37:42;;;;;;;27.95;13.95;;;;;;;8.86;86.69;99614.55;1734425;81;21191;-82
2022/11/24 07:40:49;;;;;;;28.30;14.70;;;;;;;9.14;85.41;99624.38;1730811;81;21179;-83
2022/11/24 07:43:56;;;;;;;26.40;15.75;;;;;;;9.32;84.60;99621.32;1735260;82;21168;-81
2022/11/24 07:47:09;;;;;;;24.20;13.08;;;;;;;8.74;87.26;99615.98;1734529;82;21767;-82
2022/11/24 07:50:17;;;;;;;29.00;14.30;;;;;;;8.34;87.14;99611.11;1727916;81;21234;-81
2022/11/24 07:53:23;;;;;;;26.73;15.05;;;;;;;7.12;96.07;99608.27;1734415;81;21752;-82
2022/11/24 07:56:29;;;;;;;24.18;15.18;;;;;;;8.38;92.76;99605.67;1728864;81;21310;-82
2022/11/24 07:59:34;;;;;;;22.42;12.70;;;;;;;8.93;88.54;99610.04;1737166;81;21144;-82
2022/11/24 08:02:34;;;;;;;30.17;21.07;;;;;;;8.93;87.32;99603.22;1732459;82;21205;-81
2022/11/24 08:05:27;;;;;;;31.90;15.65;;;;;;;8.91;87.29;99606.66;1734458;82;21219;-81
2022/11/24 08:08:14;;;;;;;26.95;13.95;;;;;;;8.96;87.37;99604.23;1739084;82;21135;-80
2022/11/24 08:11:21;;;;;;;24.00;14.03;;;;;;;9.24;86.49;99603.65;1738274;82;21384;-83
2022/11/24 08:14:28;;;;;;;35.43;24.20;;;;;;;9.38;86.01;99596.52;1738882;82;21195;-81
2022/11/24 08:17:38;;;;;;;27.42;17.95;;;;;;;9.50;85.20;99602.36;1750954;80;21527;-81
2022/11/24 08:20:43;;;;;;;26.15;15.98;;;;;;;8.60;89.91;99605.34;1773762;79;21835;-81
2022/11/24 08:23:49;;;;;;;32.00;18.05;;;;;;;8.84;89.37;99610.28;1771298;80;21815;-81
2022/11/24 08:26:55;;;;;;;38.15;24.77;;;;;;;8.83;89.32;99609.44;1769458;79;22121;-81
2022/11/24 08:30:02;;;;;;;34.67;21.60;;;;;;;8.92;89.06;99616.53;1775477;80;21188;-81
2022/11/24 08:33:07;;;;;;;25.27;14.70;;;;;;;7.41;94.62;99611.79;1772968;79;21168;-82
2022/11/24 08:36:16;;;;;;;33.10;21.50;;;;;;;8.63;92.42;99598.70;1756181;79;21207;-82
2022/11/24 08:39:23;;;;;;;22.67;14.33;;;;;;;8.84;91.18;99592.56;1756356;79;21788;-82
2022/11/24 08:42:23;;;;;;;24.18;13.98;;;;;;;8.19;90.34;99578.84;1771766;80;21188;-82
2022/11/24 08:45:30;;;;;;;24.70;15.68;;;;;;;8.10;97.86;99564.94;1770430;79;21223;-82
2022/11/24 08:48:37;;;;;;;25.12;15.75;;;;;;;8.64;93.67;99567.67;1771502;79;21832;-82
2022/11/24 08:51:42;;;;;;;30.65;21.10;;;;;;;8.99;91.62;99558.02;1768062;79;21245;-82
2022/11/24 08:54:48;;;;;;;31.20;16.32;;;;;;;9.17;90.64;99559.02;1770450;79;21140;-82
2022/11/24 08:57:52;;;;;;;33.02;15.80;;;;;;;9.25;90.41;99543.94;1774247;80;21165;-82
2022/11/24 09:00:58;;;;;;;26.42;17.90;;;;;;;9.62;89.18;99551.21;1762541;79;21389;-82
2022/11/24 09:03:58;;;;;;;48.50;31.20;;;;;;;9.83;88.23;99543.60;1769737;79;21831;-81
2022/11/24 09:06:50;;;;;;;37.25;27.02;;;;;;;9.97;87.33;99552.33;1766691;79;21156;-82
2022/11/24 09:09:36;;;;;;;28.17;20.35;;;;;;;10.13;86.65;99545.78;1772996;79;21184;-82
2022/11/24 09:12:46;;;;;;;31.48;24.87;;;;;;;10.04;87.15;99546.09;1774631;80;21736;-82
2022/11/24 09:16:01;;;;;;;28.27;19.62;;;;;;;10.51;85.55;99555.17;1770343;79;21362;-82
2022/11/24 09:19:11;;;;;;;32.00;21.23;;;;;;;10.55;84.93;99552.38;1746927;81;21206;-83
2022/11/24 09:22:18;;;;;;;32.65;21.23;;;;;;;10.82;83.42;99549.39;1750505;82;21829;-82
2022/11/24 09:25:17;;;;;;;27.80;18.30;;;;;;;10.90;82.60;99551.97;1742589;81;21784;-82
2022/11/24 09:28:24;;;;;;;27.98;20.02;;;;;;;11.16;81.58;99554.62;1768754;81;21197;-83
2022/11/24 09:31:33;;;;;;;27.40;20.08;;;;;;;11.34;80.41;99547.26;1765455;79;21176;-83
2022/11/24 09:34:39;;;;;;;25.30;20.08;;;;;;;11.58;79.44;99538.59;1764522;81;21128;-83
2022/11/24 09:37:47;;;;;;;34.60;21.27;;;;;;;11.90;77.88;99528.90;1770963;81;21148;-82
2022/11/24 09:40:52;;;;;;;27.82;18.60;;;;;;;11.86;77.48;99522.13;1768893;79;21164;-83
2022/11/24 09:44:29;;;;;;;26.75;17.17;;;;;;;12.03;76.40;99529.45;1762527;79;21152;-83
2022/11/24 09:47:59;;;;;;;21.70;16.30;;;;;;;12.18;75.81;99525.19;1764227;81;21780;-82
2022/11/24 09:51:07;;;;;;;23.95;17.90;;;;;;;12.10;75.43;99526.77;1769423;79;21211;-81
2022/11/24 09:54:23;;;;;;;19.17;14.75;;;;;;;11.75;76.61;99526.77;1762872;79;21192;-82
2022/11/24 09:57:29;;;;;;;25.05;12.82;;;;;;;12.12;75.96;99524.12;1749015;81;21184;-82
2022/11/24 10:00:29;;;;;;;21.07;14.63;;;;;;;10.56;83.63;99514.94;1768515;79;21152;-82
2022/11/24 10:03:29;;;;;;;25.10;14.63;;;;;;;11.07;81.11;99514.77;1763722;79;21176;-82
2022/11/24 10:06:42;;;;;;;26.02;17.57;;;;;;;11.18;80.17;99510.09;1765492;78;21528;-82
2022/11/24 10:10:18;;;;;;;29.12;18.85;;;;;;;11.13;80.13;99499.74;1762843;79;21149;-82
2022/11/24 10:13:45;;;;;;;19.98;11.93;;;;;;;11.38;79.37;99500.11;1765882;79;21172;-82
2022/11/24 10:17:12;;;;;;;25.95;14.78;;;;;;;11.51;78.35;99497.45;1763759;79;21534;-83
2022/11/24 13:17:27;;;;;;;24.52;11.12;;;;;;;10.64;96.97;99455.50;1842670;76;22226;-76
2022/11/24 13:20:41;;;;;;;18.27;10.63;;;;;;;10.84;94.77;99461.13;1816493;79;21738;-76
2022/11/24 13:23:49;;;;;;;22.40;10.53;;;;;;;10.66;94.72;99456.66;1819259;77;21208;-77
2022/11/24 13:27:01;;;;;;;23.35;10.88;;;;;;;10.32;96.07;99460.98;1820011;77;21177;-76
2022/11/24 13:30:07;;;;;;;22.37;11.18;;;;;;;10.76;94.24;99461.26;1816781;77;21176;-78
2022/11/24 13:33:24;;;;;;;17.37;10.78;;;;;;;10.58;94.68;99460.36;1816446;77;21826;-78
2022/11/24 13:39:59;;;;;;;19.90;11.57;;;;;;;10.36;95.88;99466.91;1672045;84;21235;-78
2022/11/24 13:43:10;;;;;;;23.38;11.40;;;;;;;10.22;96.53;99457.70;1702527;83;21804;-78
2022/11/24 13:46:18;;;;;;;27.37;13.13;;;;;;;9.77;98.93;99456.13;1694473;84;21262;-78
2022/11/24 13:49:27;;;;;;;18.48;11.85;;;;;;;9.81;99.47;99465.13;1706366;83;21853;-77
2022/11/24 13:53:00;;;;;;;20.20;12.20;;;;;;;10.28;97.34;99459.67;1678457;84;21262;-77
2022/11/24 13:56:15;;;;;;;21.97;12.25;;;;;;;10.20;96.98;99455.66;1669887;85;21916;-76
2022/11/24 13:59:27;;;;;;;22.42;12.45;;;;;;;10.31;97.21;99451.62;1643817;85;21249;-76
2022/11/24 14:02:33;;;;;;;25.35;13.65;;;;;;;10.44;96.05;99451.23;1722132;83;22508;-77
2022/11/24 14:05:46;;;;;;;20.43;11.83;;;;;;;10.47;96.24;99452.18;1690738;84;21271;-77
2022/11/24 14:08:45;;;;;;;21.35;11.57;;;;;;;10.30;96.58;99464.41;1651699;86;21266;-78
2022/11/24 14:11:52;;;;;;;19.00;10.50;;;;;;;10.42;95.98;99472.43;1687940;84;21148;-78
2022/11/24 14:14:57;;;;;;;26.05;13.13;;;;;;;10.33;96.51;99465.92;1681004;85;21218;-78
2022/11/24 14:17:50;;;;;;;19.80;11.18;;;;;;;10.43;96.15;99463.70;1680613;85;21847;-78
2022/11/24 14:20:36;;;;;;;25.27;11.80;;;;;;;10.44;95.98;99467.63;1653953;85;21751;-77
2022/11/24 14:23:29;;;;;;;20.05;12.28;;;;;;;10.44;96.09;99467.63;1648052;87;21244;-77
2022/11/24 14:26:42;;;;;;;28.10;12.50;;;;;;;10.41;96.26;99464.44;1648354;87;21834;-77
2022/11/24 14:29:59;;;;;;;25.08;12.68;;;;;;;10.32;96.87;99460.98;1648331;87;21225;-77
2022/11/24 14:33:09;;;;;;;28.47;12.60;;;;;;;10.13;97.81;99467.91;1648739;87;21265;-77
2022/11/24 14:36:21;;;;;;;22.20;12.55;;;;;;;10.35;97.66;99470.66;1662874;86;21221;-77
2022/11/24 14:39:29;;;;;;;21.57;12.00;;;;;;;10.25;97.24;99470.98;1654398;85;21854;-76
2022/11/24 14:42:35;;;;;;;46.65;34.60;;;;;;;10.37;97.25;99469.44;1618643;87;21219;-77
2022/11/24 14:45:41;;;;;;;24.80;13.65;;;;;;;10.41;96.79;99467.17;1634154;87;21239;-76
2022/11/24 14:48:56;;;;;;;32.78;14.15;;;;;;;10.53;96.52;99470.20;1633696;86;21246;-76
2022/11/24 14:52:09;;;;;;;34.27;14.65;;;;;;;10.57;95.99;99472.88;1635266;86;21881;-76
2022/11/24 14:55:08;;;;;;;23.70;13.45;;;;;;;10.52;96.15;99476.72;1634224;87;21266;-76
2022/11/24 14:58:38;;;;;;;30.35;13.60;;;;;;;10.55;96.04;99476.34;1634953;87;21241;-77
2022/11/24 15:01:43;;;;;;;42.73;13.78;;;;;;;10.52;96.19;99476.72;1635048;87;21231;-76
2022/11/24 15:05:03;;;;;;;24.43;12.43;;;;;;;10.66;95.42;99475.80;1633812;87;21295;-76
2022/11/24 15:08:11;;;;;;;23.27;13.13;;;;;;;10.69;95.48;99474.05;1634863;87;21932;-77
2022/11/24 15:11:17;;;;;;;25.92;12.65;;;;;;;11.04;94.00;99477.68;1634513;87;21242;-77
2022/11/24 15:14:39;;;;;;;31.93;13.55;;;;;;;10.91;93.67;99475.68;1634497;87;21280;-77
2022/11/24 15:17:59;;;;;;;27.17;12.80;;;;;;;11.12;93.50;99483.53;1635484;87;22028;-76
2022/11/24 15:21:06;;;;;;;31.12;13.78;;;;;;;11.11;93.04;99476.38;1636220;87;21287;-76
2022/11/24 15:24:23;;;;;;;22.35;12.00;;;;;;;10.97;93.54;99480.91;1635803;87;21251;-77
2022/11/24 15:27:29;;;;;;;23.87;12.23;;;;;;;10.93;93.35;99469.50;1636226;87;21263;-76
2022/11/24 15:30:34;;;;;;;26.07;13.00;;;;;;;11.20;92.44;99476.55;1636737;87;21223;-76
2022/11/24 15:33:41;;;;;;;24.15;14.35;;;;;;;11.25;91.40;99478.16;1636790;87;21263;-76
2022/11/24 15:36:46;;;;;;;33.48;14.65;;;;;;;11.00;92.44;99477.22;1636629;87;21250;-76
2022/11/24 15:39:52;;;;;;;35.20;15.05;;;;;;;11.14;92.20;99475.43;1634792;87;21227;-76
2022/11/24 15:43:01;;;;;;;29.70;14.47;;;;;;;11.03;92.63;99475.15;1634752;88;21832;-78
2022/11/24 15:46:07;;;;;;;32.95;14.65;;;;;;;11.03;92.45;99476.52;1634711;88;21223;-77
2022/11/24 15:49:13;;;;;;;31.50;14.70;;;;;;;11.19;91.78;99476.20;1634682;88;21746;-77
2022/11/24 15:52:19;;;;;;;30.50;15.08;;;;;;;11.08;91.77;99475.39;1634687;88;21219;-77
2022/11/24 15:55:28;;;;;;;26.95;12.50;;;;;;;11.42;90.24;99485.50;1634011;88;21258;-77
2022/11/24 15:58:33;;;;;;;29.18;14.90;;;;;;;11.41;89.99;99475.60;1633901;88;21231;-76
2022/11/24 16:01:41;;;;;;;31.27;14.47;;;;;;;11.31;90.21;99474.60;1634701;88;21271;-76
2022/11/24 16:04:48;;;;;;;25.62;13.85;;;;;;;11.15;90.68;99471.67;1634627;88;21219;-76
2022/11/24 16:07:54;;;;;;;32.90;15.85;;;;;;;11.34;90.33;99474.21;1633498;88;21243;-77
2022/11/24 16:11:01;;;;;;;33.55;14.98;;;;;;;11.53;89.22;99471.27;1635166;88;21307;-76
2022/11/24 16:14:07;;;;;;;27.02;15.35;;;;;;;11.25;89.71;99479.52;1633933;88;21235;-78
2022/11/24 16:17:13;;;;;;;32.28;15.35;;;;;;;11.38;89.53;99476.84;1634164;88;21552;-77
2022/11/24 16:20:20;;;;;;;35.30;16.60;;;;;;;11.34;90.10;99475.58;1634744;88;21219;-77
2022/11/24 16:23:26;;;;;;;27.02;15.25;;;;;;;11.38;89.58;99479.58;1634704;88;21214;-77
2022/11/24 16:26:32;;;;;;;28.15;15.20;;;;;;;11.65;88.51;99481.09;1633627;88;21263;-76
2022/11/24 16:29:39;;;;;;;35.73;16.30;;;;;;;11.44;88.80;99476.05;1634553;88;21271;-76
2022/11/24 16:32:46;;;;;;;30.17;14.80;;;;;;;11.35;89.00;99477.79;1634515;88;21263;-76
2022/11/24 16:35:56;;;;;;;31.65;16.35;;;;;;;11.32;89.11;99475.45;1634051;88;21263;-76
2022/11/24 16:39:02;;;;;;;29.50;15.65;;;;;;;11.26;89.55;99477.94;1633739;88;21242;-76
2022/11/24 16:42:09;;;;;;;31.33;15.83;;;;;;;11.28;89.51;99479.62;1631877;87;21246;-76
2022/11/24 16:45:18;;;;;;;33.55;16.17;;;;;;;11.68;88.15;99481.55;1632896;87;21294;-77
2022/11/24 16:48:24;;;;;;;36.42;15.80;;;;;;;11.14;88.86;99478.69;1616345;88;22657;-76
2022/11/24 16:51:30;;;;;;;27.17;15.23;;;;;;;11.25;89.75;99482.26;1634568;88;21219;-77
2022/11/24 16:54:36;;;;;;;30.08;16.70;;;;;;;11.23;90.19;99484.34;1633359;88;21789;-76
2022/11/24 16:57:43;;;;;;;28.00;15.53;;;;;;;11.09;90.85;99475.71;1633427;88;21224;-76
2022/11/24 17:00:48;;;;;;;34.40;16.15;;;;;;;11.13;90.41;99480.59;1634631;88;21228;-76
2022/11/24 17:03:54;;;;;;;33.88;15.78;;;;;;;11.12;90.56;99478.06;1633433;88;21344;-76
2022/11/24 17:06:59;;;;;;;29.75;16.27;;;;;;;11.10;90.57;99474.66;1633471;88;21250;-76
2022/11/24 17:10:05;;;;;;;28.42;15.25;;;;;;;11.32;89.81;99475.45;1633496;88;21207;-76
2022/11/24 17:13:04;;;;;;;23.15;15.15;;;;;;;11.13;90.49;99478.38;1634588;88;21287;-77
2022/11/24 17:16:11;;;;;;;29.75;15.23;;;;;;;11.02;90.83;99463.89;1633299;88;21235;-77
2022/11/24 17:19:17;;;;;;;27.13;15.78;;;;;;;11.25;89.91;99463.09;1634100;88;21279;-76
2022/11/24 17:22:23;;;;;;;25.50;15.13;;;;;;;11.49;88.68;99463.12;1634732;88;21231;-76
2022/11/24 17:25:30;;;;;;;36.17;16.45;;;;;;;11.26;88.65;99466.99;1634561;88;21227;-76
2022/11/24 17:28:36;;;;;;;25.55;16.17;;;;;;;11.17;88.99;99481.04;1634353;88;21271;-76
2022/11/24 17:31:41;;;;;;;26.37;16.23;;;;;;;11.34;89.00;99485.16;1634540;88;21219;-76
2022/11/24 17:34:48;;;;;;;26.87;15.58;;;;;;;11.40;88.43;99480.77;1634633;88;21216;-78
2022/11/24 17:37:55;;;;;;;25.48;14.73;;;;;;;11.34;88.99;99474.21;1633397;88;21223;-77
2022/11/24 17:41:01;;;;;;;27.27;15.93;;;;;;;11.36;88.59;99474.84;1634461;88;21223;-77
2022/11/24 17:44:02;;;;;;;24.05;14.45;;;;;;;11.03;88.82;99468.31;1615533;89;21480;-77
2022/11/24 17:47:07;;;;;;;33.05;16.05;;;;;;;10.90;90.79;99465.78;1656673;86;21256;-77